Thursday, July 24, 2014
19:24 UTC
  |  Log In   |  Register Free
Airport Search:

Gainesville Municipal Airport
(KGLE)

Gainesville Municipal Airport Diagram
No Airport Diagram Available

FAA data valid effective July 24, 2014 until September 18, 2014 (unless otherwise noted).

 
 
 
 
 
 
 
 
 
 
 
 
 
 

Current Aviation Weather for Gainesville Municipal Airport (KGLE)

The most recent METAR observation for KGLE was updated at: 1835 UTC
METAR Summary (Translated METAR)
KGLE
241835Z AUTO 10005KT 10SM CLR 31/20 A3007 RMK AO2 T03140198
KGYI
(26.4 nm NE from KGLE)
241835Z AUTO 05004KT 10SM CLR 32/18 A3006 RMK AO2 T03190176
TAF
No TAF information found within 50 nm of KGLE
  Airport Weather Conditions for KGLE

 Current Weather at GLE
89° F
Fair
East winds at 5.8 mph
GLE NOAA Radar

Pressure: 30.07 in
Humidity: 50%
Wind: East at 5.8 MPH (5 KT)
Dew Point: 67.6°F
Visibility: 10.00 mi


Airport Weather Forecast for KGLE

Translated METAR and TAF for KGLE
Translated METAR for KGLE (1918 UTC 24 July 2014)
found at http://aviationweather.gov/adds/metars/
 
METAR text: KGLE 241915Z AUTO 13005KT 10SM CLR 32/19 A3005 RMK AO2 T03200194
Conditions at: KGLE (GAINESVILLE , TX, US) observed 1915 UTC 24 July 2014
Temperature: 32.0°C (90°F)
Dewpoint: 19.4°C (67°F) [RH = 47%]
Pressure (altimeter): 30.05 inches Hg (1017.7 mb)
Winds: from the SE (130 degrees) at 6 MPH (5 knots; 2.6 m/s)
Visibility: 10 or more miles (16+ km)
Ceiling: at least 12,000 feet AGL
Clouds: sky clear below 12,000 feet AGL
Weather: automated observation with no human augmentation;
there may or may not be significant weather present at this time
Translated TAF for KGLE

There is no translated TAF available for this airport

Find All Airport Services Find A Hotel Find A Rental Car Find A Golf Course Find A Restaurant $100 Hamburger



FBO's on the Field
FBO Company Facility Photos Services Transportation Aviation Fuel Prices: Prices include tax
Catering Weather Repair Courtesy Rental Type 100LL JetA JetA+ MOGAS 8087
 
City of Gainesville Municipal Airport

This FBO has not yet been rated
FS:Phillips66
Last Updated: Jul-09
Login to update fuel prices
SS:
Contact City of Gainesville Municipal AirportMore FBO Information
 
Add another FBO Facility Photos Catering Weather Repair Courtesy Rental Type 100LL JetA JetA+ MOGAS 8087
Services Transportation Aviation Fuel Prices: Prices include tax


GlobalAir.com Airport Resource Center model-print
model-print
model-print
model-print